Terminal Aerodrome Forecast
Issued by NWS Topeka, KS

Home | Current Version | Previous Version | Graphics & Text | Print | Product List | Glossary On
Versions: 1 2 3 4 5 6 7 8 9 10 11 12 13 14 15 16 17 18 19 20 21 22 23 24 25
000
FTUS43 KTOP 181100 CCA
TAFTOP
TAF COR
KTOP 181155Z 1812/1912 08006KT 6SM BR BKN008
     FM181400 09006KT P6SM SCT025 SCT150
     FM181600 10008KT P6SM SCT150
     FM190800 12004KT 4SM BR BKN007=

USA.gov is the U.S. government's official web portal to all federal, state and local government web resources and services.